Time;durP1;ratioP1;P1;durP2;ratioP2;P2;SDS_P1;SDS_P2;PMS_P1;PMS_P2;Temp;Humidity;BMP_temperature;BMP_pressure;BME280_temperature;BME280_humidity;BME280_pressure;Samples;Min_cycle;Max_cycle;Signal;HPM_P1;HPM_P2
2021/06/25 00:02:07;;;;;;;109.80;39.25;;;;;;;9.11;100.00;101993.31;5239060;28;20021;-83
2021/06/25 00:04:37;;;;;;;117.13;40.85;;;;;;;9.07;100.00;101994.56;5235974;28;20025;-83
2021/06/25 00:07:07;;;;;;;127.43;40.78;;;;;;;9.06;100.00;101990.19;5232629;28;20024;-83
2021/06/25 00:09:38;;;;;;;107.07;38.83;;;;;;;9.03;100.00;101985.91;5234501;28;20040;-83
2021/06/25 00:12:09;;;;;;;111.75;39.72;;;;;;;8.97;100.00;101983.78;5231110;28;20027;-83
2021/06/25 00:14:40;;;;;;;114.57;41.10;;;;;;;8.93;100.00;101982.31;5232171;28;20031;-83
2021/06/25 00:17:10;;;;;;;92.60;35.75;;;;;;;8.88;100.00;101981.00;5227837;28;20467;-83
2021/06/25 00:19:41;;;;;;;118.65;39.63;;;;;;;8.85;100.00;101976.78;5232381;28;20031;-83
2021/06/25 00:22:11;;;;;;;133.00;44.63;;;;;;;8.86;100.00;101977.63;5237883;28;20021;-83
2021/06/25 00:24:42;;;;;;;118.28;41.60;;;;;;;8.85;100.00;101971.41;5238000;28;20055;-83
2021/06/25 00:27:12;;;;;;;102.07;37.53;;;;;;;8.86;100.00;101970.44;5234455;28;20028;-83
2021/06/25 00:29:43;;;;;;;81.15;30.35;;;;;;;8.82;100.00;101972.50;5231711;28;20021;-83
2021/06/25 00:32:13;;;;;;;86.78;31.92;;;;;;;8.78;100.00;101960.34;5235617;28;20047;-83
2021/06/25 00:34:44;;;;;;;86.85;33.15;;;;;;;8.76;100.00;101961.47;5225057;28;20021;-83
2021/06/25 00:37:14;;;;;;;80.60;30.42;;;;;;;8.74;100.00;101963.44;5229330;28;20280;-83
2021/06/25 00:39:45;;;;;;;58.78;26.05;;;;;;;8.71;100.00;101964.53;5226835;28;20025;-83
2021/06/25 00:42:15;;;;;;;68.43;27.52;;;;;;;8.72;100.00;101962.72;5237699;28;20033;-83
2021/06/25 00:44:46;;;;;;;61.65;25.63;;;;;;;8.69;100.00;101957.63;5223662;28;20029;-83
2021/06/25 00:47:17;;;;;;;54.22;24.60;;;;;;;8.65;100.00;101961.53;5225074;28;20503;-83
2021/06/25 00:49:47;;;;;;;51.17;25.00;;;;;;;8.62;100.00;101956.41;5245548;28;20476;-83
2021/06/25 00:52:18;;;;;;;74.07;28.92;;;;;;;8.57;100.00;101954.97;5230749;28;20106;-83
2021/06/25 00:54:49;;;;;;;85.13;33.67;;;;;;;8.53;100.00;101956.22;5233266;28;20028;-83
2021/06/25 00:57:19;;;;;;;96.93;36.25;;;;;;;8.48;100.00;101950.41;5232023;28;20622;-83
2021/06/25 00:59:50;;;;;;;98.10;36.65;;;;;;;8.46;100.00;101951.47;5234064;28;20032;-83
2021/06/25 01:02:20;;;;;;;103.57;36.88;;;;;;;8.43;100.00;101944.53;5230003;28;20021;-83
2021/06/25 01:04:52;;;;;;;105.65;37.35;;;;;;;8.43;100.00;101949.03;5234290;28;20024;-83
2021/06/25 01:07:24;;;;;;;99.68;37.10;;;;;;;8.41;100.00;101946.50;5238385;28;20028;-83
2021/06/25 01:09:55;;;;;;;96.32;37.20;;;;;;;8.40;100.00;101952.84;5224732;28;20395;-83
2021/06/25 01:12:27;;;;;;;105.53;38.38;;;;;;;8.41;100.00;101940.31;5225269;28;20029;-83
2021/06/25 01:14:57;;;;;;;95.25;35.55;;;;;;;8.44;100.00;101937.41;5238334;28;20021;-83
2021/06/25 01:17:28;;;;;;;95.03;33.10;;;;;;;8.47;100.00;101945.16;5224586;28;20391;-83
2021/06/25 01:20:03;;;;;;;94.07;35.30;;;;;;;8.45;100.00;101939.94;5238009;28;20037;-83
2021/06/25 01:22:35;;;;;;;87.43;31.25;;;;;;;8.46;100.00;101944.31;5235919;28;20422;-83
2021/06/25 01:25:12;;;;;;;70.72;27.40;;;;;;;8.43;100.00;101947.22;5231554;28;20114;-83
2021/06/25 01:27:44;;;;;;;55.45;23.73;;;;;;;8.41;100.00;101938.47;5231387;28;20068;-83
2021/06/25 01:30:21;;;;;;;56.53;23.80;;;;;;;8.36;100.00;101935.34;5232461;28;20020;-83
2021/06/25 01:32:52;;;;;;;53.38;23.02;;;;;;;8.32;100.00;101936.53;5231623;28;20021;-83
2021/06/25 01:35:23;;;;;;;49.88;22.05;;;;;;;8.35;100.00;101943.47;5235780;28;20020;-83
2021/06/25 01:37:54;;;;;;;50.08;21.55;;;;;;;8.33;100.00;101943.56;5241001;28;20143;-83
2021/06/25 01:40:25;;;;;;;60.90;24.15;;;;;;;8.34;100.00;101937.25;5228433;28;20112;-83
2021/06/25 01:42:58;;;;;;;71.13;27.13;;;;;;;8.37;100.00;101938.84;5241613;28;20032;-83
2021/06/25 01:45:33;;;;;;;69.25;26.42;;;;;;;8.38;100.00;101936.06;5241074;28;20170;-83
2021/06/25 01:48:04;;;;;;;62.27;24.37;;;;;;;8.42;100.00;101929.47;5236415;28;20024;-83
2021/06/25 01:50:39;;;;;;;105.32;37.00;;;;;;;8.47;100.00;101937.13;5247538;28;20027;-83
2021/06/25 01:53:17;;;;;;;87.45;33.03;;;;;;;8.47;100.00;101934.44;5231384;28;20393;-83
2021/06/25 01:55:50;;;;;;;87.60;30.70;;;;;;;8.40;100.00;101928.78;5255550;28;20017;-83
2021/06/25 01:58:25;;;;;;;89.35;29.85;;;;;;;8.39;100.00;101928.91;5243704;28;20013;-83
2021/06/25 02:01:09;;;;;;;84.32;31.13;;;;;;;8.37;100.00;101926.34;5243388;28;20682;-85
2021/06/25 02:03:45;;;;;;;81.07;29.52;;;;;;;8.38;100.00;101925.34;5243831;28;20029;-83
2021/06/25 02:06:16;;;;;;;74.32;28.05;;;;;;;8.37;100.00;101921.00;5261918;28;20044;-84
2021/06/25 02:08:47;;;;;;;82.45;30.95;;;;;;;8.38;100.00;101920.00;5244386;28;20024;-84
2021/06/25 02:11:24;;;;;;;80.05;30.10;;;;;;;8.35;100.00;101912.22;5258259;28;20150;-83
2021/06/25 02:13:54;;;;;;;73.55;28.10;;;;;;;8.37;100.00;101912.13;5252694;28;20028;-84
2021/06/25 02:16:24;;;;;;;68.25;27.17;;;;;;;8.35;100.00;101911.38;5251166;28;20093;-84
2021/06/25 02:18:55;;;;;;;77.03;28.45;;;;;;;8.34;100.00;101913.19;5225279;28;20028;-83
2021/06/25 02:21:25;;;;;;;69.85;25.83;;;;;;;8.30;100.00;101907.25;5241542;28;20017;-84
2021/06/25 02:23:56;;;;;;;86.55;28.77;;;;;;;8.31;100.00;101910.78;5252414;28;20507;-84
2021/06/25 02:26:27;;;;;;;82.68;28.98;;;;;;;8.30;100.00;101915.28;5248085;28;20059;-83
2021/06/25 02:28:57;;;;;;;88.53;30.75;;;;;;;8.31;100.00;101908.94;5263195;28;20024;-83
2021/06/25 02:31:28;;;;;;;96.20;32.03;;;;;;;8.32;100.00;101910.63;5249166;28;20108;-83
2021/06/25 02:33:58;;;;;;;91.15;34.28;;;;;;;8.30;100.00;101917.09;5258266;28;20016;-82
2021/06/25 02:36:29;;;;;;;88.20;33.17;;;;;;;8.29;100.00;101912.72;5243186;28;20062;-84
2021/06/25 02:38:59;;;;;;;106.00;35.60;;;;;;;8.29;100.00;101910.91;5250189;28;20013;-83
2021/06/25 02:41:30;;;;;;;103.78;36.60;;;;;;;8.31;100.00;101906.28;5260881;28;20060;-84
2021/06/25 02:44:01;;;;;;;102.93;36.53;;;;;;;8.35;100.00;101906.03;5226718;28;20029;-84
2021/06/25 02:46:33;;;;;;;110.93;37.67;;;;;;;8.36;100.00;101903.25;5226865;28;20498;-84
2021/06/25 02:49:04;;;;;;;98.82;34.83;;;;;;;8.39;100.00;101913.72;5226232;28;20036;-83
2021/06/25 02:51:34;;;;;;;100.45;33.65;;;;;;;8.38;100.00;101889.75;5226444;28;20426;-84
2021/06/25 02:54:05;;;;;;;85.57;29.38;;;;;;;8.37;100.00;101898.75;5239867;28;20163;-83
2021/06/25 02:56:36;;;;;;;90.60;30.80;;;;;;;8.39;100.00;101908.34;5225778;28;20017;-84
2021/06/25 02:59:06;;;;;;;89.82;30.98;;;;;;;8.43;100.00;101907.09;5225224;28;20056;-84
2021/06/25 03:01:37;;;;;;;107.40;36.40;;;;;;;8.48;100.00;101904.94;5226245;28;20074;-84
2021/06/25 03:04:07;;;;;;;95.40;32.03;;;;;;;8.48;100.00;101904.94;5239543;28;20025;-84
2021/06/25 03:06:38;;;;;;;103.57;34.55;;;;;;;8.52;100.00;101895.66;5226756;28;20052;-83
2021/06/25 03:09:08;;;;;;;106.78;34.92;;;;;;;8.50;100.00;101899.44;5226864;28;20021;-84
2021/06/25 03:11:39;;;;;;;104.32;34.30;;;;;;;8.48;100.00;101891.56;5226272;28;20021;-83
2021/06/25 03:14:09;;;;;;;101.22;36.10;;;;;;;8.50;100.00;101886.06;5226037;28;20028;-83
2021/06/25 03:16:40;;;;;;;105.00;36.47;;;;;;;8.51;100.00;101880.59;5239598;28;20083;-84
2021/06/25 03:19:10;;;;;;;97.75;33.17;;;;;;;8.51;100.00;101891.28;5225884;28;20114;-83
2021/06/25 03:21:41;;;;;;;113.13;37.58;;;;;;;8.54;100.00;101882.16;5240015;28;20036;-84
2021/06/25 03:24:11;;;;;;;96.20;33.28;;;;;;;8.55;100.00;101882.03;5237556;28;20074;-84
2021/06/25 03:26:42;;;;;;;100.95;34.83;;;;;;;8.57;100.00;101876.53;5227427;28;20036;-83
2021/06/25 03:29:12;;;;;;;122.38;39.70;;;;;;;8.62;100.00;101868.16;5225867;28;20029;-84
2021/06/25 03:31:43;;;;;;;111.57;37.70;;;;;;;8.65;100.00;101873.25;5232808;28;20021;-84
2021/06/25 03:34:13;;;;;;;119.00;41.28;;;;;;;8.69;100.00;101872.03;5232034;28;20480;-84
2021/06/25 03:36:44;;;;;;;115.85;40.92;;;;;;;8.74;100.00;101869.81;5234349;28;20468;-83
2021/06/25 03:39:14;;;;;;;132.30;42.45;;;;;;;8.76;100.00;101867.84;5238351;28;20028;-84
2021/06/25 03:41:45;;;;;;;106.63;40.22;;;;;;;8.81;100.00;101865.63;5234656;28;20128;-84
2021/06/25 03:44:15;;;;;;;122.25;41.92;;;;;;;8.87;100.00;101862.41;5232680;28;20109;-84
2021/06/25 03:46:46;;;;;;;109.57;37.72;;;;;;;8.92;100.00;101862.03;5246152;28;20025;-84
2021/06/25 03:49:16;;;;;;;107.75;39.92;;;;;;;8.98;100.00;101866.84;5228373;28;20025;-84
2021/06/25 03:51:47;;;;;;;107.78;39.35;;;;;;;9.05;100.00;101860.84;5233257;28;20051;-84
2021/06/25 03:54:17;;;;;;;126.07;40.55;;;;;;;9.12;100.00;101866.53;5240575;28;20025;-83
2021/06/25 03:56:48;;;;;;;125.82;42.78;;;;;;;9.25;100.00;101869.84;5225427;28;20024;-84
2021/06/25 03:59:18;;;;;;;114.65;42.10;;;;;;;9.33;100.00;101871.84;5231160;28;20056;-83
2021/06/25 04:01:49;;;;;;;107.18;40.67;;;;;;;9.37;100.00;101867.91;5231714;28;20029;-84
2021/06/25 04:04:20;;;;;;;120.05;41.25;;;;;;;9.40;100.00;101861.47;5233037;28;20482;-84
2021/06/25 04:06:50;;;;;;;111.75;40.35;;;;;;;9.44;100.00;101858.38;5231158;28;20387;-83
2021/06/25 04:09:20;;;;;;;106.13;37.92;;;;;;;9.48;100.00;101859.78;5245767;28;20508;-83
2021/06/25 04:11:52;;;;;;;106.38;39.80;;;;;;;9.56;100.00;101857.28;5232552;28;20016;-83
2021/06/25 04:14:23;;;;;;;102.78;38.08;;;;;;;9.66;100.00;101854.66;5234851;28;20105;-84
2021/06/25 04:16:53;;;;;;;130.52;43.53;;;;;;;9.76;100.00;101852.00;5224670;28;20539;-84
2021/06/25 04:19:24;;;;;;;112.50;41.35;;;;;;;9.85;100.00;101845.84;5237364;28;20108;-83
2021/06/25 04:21:54;;;;;;;113.93;41.90;;;;;;;9.97;100.00;101854.59;5231947;28;20020;-83
2021/06/25 04:24:25;;;;;;;96.85;37.40;;;;;;;10.04;100.00;101851.25;5232195;28;20487;-84
2021/06/25 04:26:55;;;;;;;90.45;36.60;;;;;;;10.13;100.00;101853.06;5237568;28;20098;-83
2021/06/25 04:29:26;;;;;;;97.90;38.20;;;;;;;10.23;100.00;101852.25;5226442;28;20035;-83
2021/06/25 04:31:56;;;;;;;106.25;39.50;;;;;;;10.35;100.00;101854.69;5245486;28;20032;-84
2021/06/25 04:34:27;;;;;;;96.53;38.72;;;;;;;10.46;100.00;101855.53;5227540;28;20027;-84
2021/06/25 04:36:57;;;;;;;95.35;39.30;;;;;;;10.58;100.00;101847.19;5236735;28;20104;-84
2021/06/25 04:39:28;;;;;;;97.28;37.00;;;;;;;10.70;100.00;101849.75;5240661;28;20052;-84
2021/06/25 04:41:58;;;;;;;92.80;38.47;;;;;;;10.81;100.00;101845.06;5224665;28;20055;-83
2021/06/25 04:44:29;;;;;;;89.90;37.45;;;;;;;10.93;100.00;101843.06;5237924;28;20112;-83
2021/06/25 04:47:00;;;;;;;74.00;35.08;;;;;;;11.00;100.00;101848.72;5220263;28;20052;-84
2021/06/25 04:49:34;;;;;;;63.95;31.25;;;;;;;11.07;100.00;101844.44;5245044;28;20028;-83
2021/06/25 04:52:06;;;;;;;78.97;31.38;;;;;;;11.21;100.00;101835.09;5239304;28;20103;-83
2021/06/25 04:54:36;;;;;;;68.07;30.33;;;;;;;11.25;100.00;101836.50;5233291;28;20048;-84
2021/06/25 04:57:07;;;;;;;63.15;30.05;;;;;;;11.43;100.00;101836.56;5231675;28;20103;-84
2021/06/25 04:59:37;;;;;;;64.43;29.98;;;;;;;11.50;100.00;101824.25;5234502;28;20032;-83
2021/06/25 05:02:08;;;;;;;62.55;28.85;;;;;;;11.70;100.00;101838.41;5237763;28;20035;-83
2021/06/25 05:04:38;;;;;;;58.78;28.42;;;;;;;11.74;100.00;101821.81;5235000;28;20025;-83
2021/06/25 05:07:09;;;;;;;49.58;25.60;;;;;;;11.92;100.00;101824.59;5230407;28;20022;-83
2021/06/25 05:09:39;;;;;;;55.20;26.60;;;;;;;12.07;100.00;101814.16;5232682;28;20111;-84
2021/06/25 05:12:10;;;;;;;51.33;25.13;;;;;;;12.20;100.00;101825.41;5241549;28;20056;-83
2021/06/25 05:14:40;;;;;;;50.75;23.48;;;;;;;12.32;100.00;101831.41;5241973;28;20021;-83
2021/06/25 05:17:10;;;;;;;47.33;23.52;;;;;;;12.41;100.00;101820.56;5236088;28;20031;-83
2021/06/25 05:19:41;;;;;;;48.25;22.83;;;;;;;12.52;100.00;101827.53;5235258;28;20031;-84
2021/06/25 05:22:11;;;;;;;42.92;23.08;;;;;;;12.77;100.00;101817.81;5240617;28;20115;-84
2021/06/25 05:24:42;;;;;;;42.65;20.63;;;;;;;12.91;100.00;101813.72;5242758;28;20033;-83
2021/06/25 05:27:12;;;;;;;41.20;20.90;;;;;;;13.18;100.00;101818.06;5239520;28;20036;-83
2021/06/25 05:29:43;;;;;;;43.50;22.55;;;;;;;13.13;100.00;101820.41;5244719;28;20016;-84
2021/06/25 05:32:13;;;;;;;39.90;21.67;;;;;;;13.10;100.00;101813.50;5237977;28;20021;-84
2021/06/25 05:34:45;;;;;;;41.90;22.73;;;;;;;13.06;100.00;101819.38;5241988;28;20045;-85
2021/06/25 05:37:15;;;;;;;49.22;23.48;;;;;;;12.96;100.00;101814.94;5240931;28;20541;-85
2021/06/25 05:39:46;;;;;;;41.70;22.58;;;;;;;12.83;100.00;101819.88;5235035;28;20028;-83
2021/06/25 05:42:16;;;;;;;44.28;21.23;;;;;;;12.95;100.00;101815.94;5235878;28;20257;-84
2021/06/25 05:44:47;;;;;;;36.55;20.58;;;;;;;13.02;100.00;101815.28;5241618;28;20120;-83
2021/06/25 05:47:17;;;;;;;38.95;20.73;;;;;;;13.18;100.00;101818.06;5242032;28;20027;-82
2021/06/25 05:49:48;;;;;;;37.00;20.95;;;;;;;13.29;100.00;101819.69;5236790;28;20483;-83
2021/06/25 05:52:18;;;;;;;40.80;20.15;;;;;;;13.42;100.00;101825.50;5232658;28;20709;-83
2021/06/25 05:54:49;;;;;;;31.92;19.15;;;;;;;13.50;100.00;101828.19;5238038;28;20052;-82
2021/06/25 05:57:19;;;;;;;37.67;18.67;;;;;;;13.60;100.00;101828.06;5239412;28;20033;-82
2021/06/25 05:59:50;;;;;;;33.67;19.25;;;;;;;13.65;100.00;101823.88;5231468;28;20398;-83
2021/06/25 06:02:21;;;;;;;31.52;18.10;;;;;;;13.86;100.00;101823.47;5227069;28;20044;-83
2021/06/25 06:04:51;;;;;;;29.60;16.52;;;;;;;13.96;100.00;101828.72;5235253;28;20053;-83
2021/06/25 06:07:22;;;;;;;29.88;17.77;;;;;;;14.07;100.00;101835.66;5248320;28;20032;-82
2021/06/25 06:09:53;;;;;;;30.33;17.85;;;;;;;14.29;100.00;101828.78;5234042;28;20079;-84
2021/06/25 06:12:23;;;;;;;28.30;16.90;;;;;;;14.39;100.00;101826.78;5225361;28;20031;-83
2021/06/25 06:14:54;;;;;;;30.40;16.10;;;;;;;14.68;100.00;101835.25;5225772;28;20108;-83
2021/06/25 06:17:25;;;;;;;34.55;16.50;;;;;;;14.98;100.00;101836.41;5228071;28;20456;-83
2021/06/25 06:19:55;;;;;;;28.52;15.05;;;;;;;15.41;100.00;101828.88;5240527;28;20021;-83
2021/06/25 06:31:17;;;;;;;21.55;13.75;;;;;;;16.08;100.00;101812.19;5233767;28;20017;-83
2021/06/25 06:36:33;;;;;;;22.60;13.18;;;;;;;16.45;100.00;101819.53;5241097;28;20472;-82
2021/06/25 06:39:05;;;;;;;19.48;12.20;;;;;;;16.46;100.00;101809.53;5227452;28;20509;-82
2021/06/25 06:41:36;;;;;;;21.23;12.60;;;;;;;16.72;100.00;101818.16;5239993;28;20033;-83
2021/06/25 06:44:07;;;;;;;21.38;12.70;;;;;;;17.42;100.00;101824.19;5228428;28;20033;-83
2021/06/25 06:46:38;;;;;;;28.23;12.48;;;;;;;17.48;100.00;101823.47;5237573;28;20033;-84
2021/06/25 06:49:08;;;;;;;21.30;11.68;;;;;;;17.95;100.00;101819.47;5229398;28;20493;-84
2021/06/25 06:51:41;;;;;;;22.65;11.70;;;;;;;17.98;100.00;101821.81;5243651;28;20032;-84
2021/06/25 06:54:12;;;;;;;20.52;11.93;;;;;;;18.16;100.00;101813.22;5233777;28;20020;-83
2021/06/25 06:56:42;;;;;;;19.25;10.98;;;;;;;18.22;100.00;101815.16;5234862;28;20048;-83
2021/06/25 06:59:13;;;;;;;17.40;10.23;;;;;;;18.21;100.00;101817.06;5231881;28;20342;-83
2021/06/25 07:01:43;;;;;;;17.50;10.27;;;;;;;18.22;100.00;101823.31;5247347;28;20024;-83
2021/06/25 07:04:13;;;;;;;19.27;10.20;;;;;;;18.47;100.00;101826.50;5239753;28;20017;-83
2021/06/25 07:06:44;;;;;;;18.42;9.93;;;;;;;18.22;100.00;101821.44;5239684;28;20070;-83
2021/06/25 07:09:14;;;;;;;19.92;10.15;;;;;;;17.84;100.00;101820.81;5238113;28;20095;-84
2021/06/25 07:11:45;;;;;;;21.90;11.00;;;;;;;17.75;100.00;101822.78;5225968;28;20082;-82
2021/06/25 07:14:15;;;;;;;18.17;10.07;;;;;;;17.58;100.00;101833.00;5226273;28;20027;-83
2021/06/25 07:16:46;;;;;;;19.30;10.23;;;;;;;17.63;100.00;101829.72;5229724;28;20495;-83
2021/06/25 07:19:16;;;;;;;18.08;9.85;;;;;;;17.73;100.00;101827.59;5235576;28;20132;-83
2021/06/25 07:21:47;;;;;;;19.70;9.32;;;;;;;17.68;100.00;101826.44;5226364;28;20488;-84
2021/06/25 07:24:17;;;;;;;14.82;9.50;;;;;;;17.67;100.00;101833.75;5216103;28;20028;-82
2021/06/25 07:26:48;;;;;;;17.25;9.25;;;;;;;17.96;100.00;101826.59;5231997;28;20489;-83
2021/06/25 07:29:18;;;;;;;17.73;9.38;;;;;;;18.19;100.00;101830.00;5232850;28;20052;-83
2021/06/25 07:31:49;;;;;;;13.05;8.57;;;;;;;18.58;100.00;101818.69;5239394;28;20452;-83
2021/06/25 07:34:19;;;;;;;17.75;8.98;;;;;;;18.77;100.00;101814.47;5224778;28;20060;-83
2021/06/25 07:36:50;;;;;;;16.83;7.70;;;;;;;19.18;100.00;101808.28;5225851;28;20051;-83
2021/06/25 07:39:20;;;;;;;15.43;7.15;;;;;;;19.49;100.00;101812.44;5232634;28;20064;-83
2021/06/25 07:41:50;;;;;;;15.45;6.75;;;;;;;19.42;100.00;101807.78;5246201;28;20028;-83
2021/06/25 07:44:21;;;;;;;11.57;5.90;;;;;;;19.20;100.00;101817.06;5232820;28;20460;-83
2021/06/25 07:46:52;;;;;;;12.13;6.13;;;;;;;19.22;100.00;101815.00;5246260;28;20372;-82
2021/06/25 07:49:23;;;;;;;14.80;6.53;;;;;;;18.89;100.00;101823.78;5226613;28;20064;-83
2021/06/25 07:51:53;;;;;;;12.98;6.22;;;;;;;19.14;100.00;101813.28;5238151;28;20105;-83
2021/06/25 07:54:24;;;;;;;12.25;6.32;;;;;;;19.29;100.00;101821.31;5239344;28;20173;-83
2021/06/25 07:56:54;;;;;;;15.30;6.13;;;;;;;19.32;100.00;101814.63;5225260;28;20039;-83
2021/06/25 07:59:25;;;;;;;11.82;6.32;;;;;;;19.19;100.00;101809.97;5225002;28;20025;-83
2021/06/25 08:01:55;;;;;;;10.93;5.90;;;;;;;19.27;100.00;101815.22;5224735;28;20040;-83
2021/06/25 08:04:28;;;;;;;9.15;5.75;;;;;;;19.46;100.00;101800.06;5234028;28;20479;-83
2021/06/25 08:06:58;;;;;;;13.60;6.28;;;;;;;19.62;100.00;101804.34;5228511;28;20040;-83
2021/06/25 08:09:29;;;;;;;10.82;5.90;;;;;;;19.61;100.00;101805.41;5224656;28;20021;-83
2021/06/25 08:11:59;;;;;;;10.30;6.55;;;;;;;19.75;100.00;101806.28;5238180;28;20066;-83
2021/06/25 08:14:30;;;;;;;15.43;6.78;;;;;;;20.08;100.00;101804.53;5226061;28;20060;-84
2021/06/25 08:17:00;;;;;;;11.13;5.95;;;;;;;20.25;100.00;101802.25;5231040;28;20368;-81
2021/06/25 08:19:31;;;;;;;11.07;6.18;;;;;;;20.04;100.00;101797.81;5232794;28;20025;-82
2021/06/25 08:22:02;;;;;;;11.10;6.05;;;;;;;19.93;100.00;101801.13;5225016;28;20029;-82
2021/06/25 08:24:34;;;;;;;12.05;6.47;;;;;;;19.99;100.00;101794.03;5238593;28;20024;-81
2021/06/25 08:27:05;;;;;;;11.10;6.43;;;;;;;19.66;100.00;101806.47;5233561;28;20370;-82
2021/06/25 08:29:35;;;;;;;12.38;7.00;;;;;;;19.62;100.00;101805.19;5229853;28;20155;-82
2021/06/25 08:32:06;;;;;;;11.00;6.80;;;;;;;19.95;100.00;101809.94;5235318;28;20101;-82
2021/06/25 08:34:36;;;;;;;13.00;6.75;;;;;;;20.16;100.00;101806.19;5228535;28;20043;-82
2021/06/25 08:37:07;;;;;;;21.77;7.15;;;;;;;20.34;100.00;101805.63;5232923;28;20017;-83
2021/06/25 08:39:38;;;;;;;13.27;6.65;;;;;;;20.53;100.00;101802.06;5224235;28;20048;-84
2021/06/25 08:42:09;;;;;;;14.15;6.53;;;;;;;20.86;100.00;101799.34;5237163;28;20114;-83
2021/06/25 08:44:40;;;;;;;13.10;6.82;;;;;;;21.31;100.00;101806.88;5224903;28;20503;-83
2021/06/25 08:47:11;;;;;;;12.38;7.40;;;;;;;21.35;100.00;101800.75;5237931;28;20017;-83
2021/06/25 08:49:47;;;;;;;15.95;6.90;;;;;;;21.14;99.25;101795.56;5223955;28;20403;-84
2021/06/25 08:52:17;;;;;;;10.15;6.55;;;;;;;21.43;81.71;101802.41;5224349;28;20029;-84
2021/06/25 08:54:48;;;;;;;12.82;6.50;;;;;;;21.38;92.78;101792.13;5234204;28;20519;-83
2021/06/25 08:57:18;;;;;;;9.52;6.32;;;;;;;20.90;83.01;101799.78;5227866;28;20029;-83
2021/06/25 08:59:49;;;;;;;13.73;6.75;;;;;;;21.13;91.75;101802.03;5224028;28;20111;-83
2021/06/25 09:02:19;;;;;;;13.10;6.53;;;;;;;20.84;89.84;101793.28;5224087;28;20448;-83
2021/06/25 09:04:50;;;;;;;13.02;6.88;;;;;;;20.90;88.48;101791.59;5236798;28;20074;-83
2021/06/25 09:07:20;;;;;;;9.75;6.00;;;;;;;21.45;100.00;101792.97;5231552;28;20056;-83
2021/06/25 09:09:50;;;;;;;10.23;6.40;;;;;;;21.93;100.00;101786.22;5213081;28;20109;-84
2021/06/25 09:12:25;;;;;;;14.15;6.32;;;;;;;22.06;88.69;101785.31;5232020;28;20360;-83
2021/06/25 09:14:59;;;;;;;11.20;6.20;;;;;;;21.54;82.86;101792.72;5231376;28;20035;-83
2021/06/25 09:17:29;;;;;;;14.25;6.45;;;;;;;21.73;85.94;101780.84;5234830;28;20064;-83
2021/06/25 09:20:02;;;;;;;9.63;6.40;;;;;;;21.86;81.83;101778.06;5241127;28;20056;-83
2021/06/25 09:22:48;;;;;;;11.20;6.55;;;;;;;22.14;91.20;101776.88;5244956;28;20020;-83
2021/06/25 09:25:18;;;;;;;9.68;6.65;;;;;;;22.18;81.75;101784.41;5224086;28;20048;-83
2021/06/25 09:27:57;;;;;;;14.30;6.53;;;;;;;22.28;79.56;101777.63;5237496;28;20071;-83
2021/06/25 09:30:28;;;;;;;10.98;6.53;;;;;;;22.72;79.40;101776.63;5224030;28;20115;-83
2021/06/25 09:33:00;;;;;;;9.40;6.32;;;;;;;22.65;76.28;101773.13;5224503;28;20060;-83
2021/06/25 09:35:32;;;;;;;13.48;6.60;;;;;;;22.49;68.81;101779.97;5234791;28;20024;-83
2021/06/25 09:38:02;;;;;;;11.05;6.88;;;;;;;22.43;67.96;101778.13;5231220;28;20426;-83
2021/06/25 09:40:37;;;;;;;9.80;6.00;;;;;;;22.22;69.53;101784.81;5224181;28;20079;-84
2021/06/25 09:43:13;;;;;;;12.25;6.10;;;;;;;21.91;69.04;101783.72;5224014;28;20087;-82
2021/06/25 09:45:48;;;;;;;8.32;5.70;;;;;;;21.30;65.53;101783.34;5248148;28;20035;-83
2021/06/25 09:48:19;;;;;;;9.48;6.15;;;;;;;20.89;69.55;101789.94;5259872;28;20025;-82
2021/06/25 09:50:49;;;;;;;12.15;5.80;;;;;;;20.79;80.11;101790.34;5247622;28;20104;-83
2021/06/25 09:53:19;;;;;;;10.40;6.28;;;;;;;20.50;72.31;101777.97;5235045;28;20029;-84
2021/06/25 09:55:59;;;;;;;12.18;5.50;;;;;;;20.30;83.82;101783.38;5231067;28;20021;-83
2021/06/25 10:01:27;;;;;;;8.73;5.15;;;;;;;20.31;78.24;101774.16;5227478;28;20557;-83
2021/06/25 10:04:00;;;;;;;9.35;5.60;;;;;;;20.47;78.76;101775.66;5241274;28;20425;-83
2021/06/25 10:06:34;;;;;;;7.78;5.15;;;;;;;20.51;79.54;101781.53;5240342;28;20052;-84
2021/06/25 10:09:05;;;;;;;11.80;4.65;;;;;;;20.73;82.35;101780.25;5247721;28;20544;-83
2021/06/25 10:11:36;;;;;;;7.60;4.55;;;;;;;20.77;77.56;101778.81;5233601;28;20047;-83
2021/06/25 10:14:07;;;;;;;6.18;4.80;;;;;;;20.87;80.35;101787.38;5235964;28;20061;-83
2021/06/25 10:16:37;;;;;;;10.25;4.70;;;;;;;20.97;80.77;101786.97;5245973;28;20517;-83
2021/06/25 10:19:12;;;;;;;9.73;5.35;;;;;;;21.17;77.19;101786.91;5226786;28;20396;-82
2021/06/25 10:21:43;;;;;;;;;;;;;;;21.14;78.18;101782.75;5227593;28;20247;-83
2021/06/25 10:24:15;;;;;;;9.38;5.18;;;;;;;20.97;77.43;101786.13;5227357;28;19916;-82
2021/06/25 10:26:47;;;;;;;9.45;5.07;;;;;;;21.34;89.64;101787.34;5226969;28;20033;-84
2021/06/25 10:29:17;;;;;;;11.32;5.18;;;;;;;21.37;77.16;101785.00;5239508;28;20468;-83
2021/06/25 10:31:48;;;;;;;13.43;5.85;;;;;;;21.68;75.53;101786.13;5226924;28;20025;-83
2021/06/25 10:34:18;;;;;;;10.48;5.93;;;;;;;21.29;77.92;101790.69;5226919;28;20032;-83
2021/06/25 10:36:51;;;;;;;12.52;6.47;;;;;;;21.30;82.61;101788.78;5227269;28;20025;-83
2021/06/25 10:39:21;;;;;;;11.10;5.72;;;;;;;21.29;87.98;101790.69;5240047;28;20028;-83
2021/06/25 10:41:54;;;;;;;11.23;6.05;;;;;;;21.15;84.68;101780.84;5226855;28;20071;-83
2021/06/25 10:44:30;;;;;;;9.25;6.15;;;;;;;21.01;89.97;101790.09;5226218;28;20072;-83
2021/06/25 10:47:34;;;;;;;12.00;6.03;;;;;;;20.88;96.40;101782.78;5226703;28;20040;-83
2021/06/25 10:50:14;;;;;;;12.73;6.18;;;;;;;21.17;96.97;101784.19;5226478;28;20063;-84
2021/06/25 10:53:08;;;;;;;11.98;6.60;;;;;;;20.95;92.98;101779.00;5226324;28;20033;-84
2021/06/25 10:55:46;;;;;;;11.65;5.95;;;;;;;21.02;99.19;101786.31;5239948;28;20023;-84
2021/06/25 10:58:25;;;;;;;12.18;6.60;;;;;;;20.92;95.00;101786.75;5226450;28;20452;-83
2021/06/25 11:00:57;;;;;;;19.50;6.18;;;;;;;20.84;100.00;101787.84;5246155;28;20051;-84
2021/06/25 11:03:38;;;;;;;11.52;6.35;;;;;;;20.46;100.00;101790.31;5233450;28;20039;-83
2021/06/25 11:06:48;;;;;;;12.75;6.78;;;;;;;20.62;100.00;101781.75;5225087;28;20104;-83
2021/06/25 11:09:20;;;;;;;10.32;6.40;;;;;;;20.48;97.51;101784.69;5226229;28;20128;-84
2021/06/25 11:12:13;;;;;;;10.63;5.90;;;;;;;20.64;100.00;101776.09;5224761;28;20089;-83
2021/06/25 11:14:44;;;;;;;12.18;7.00;;;;;;;20.58;100.00;101780.50;5232497;28;20017;-83
2021/06/25 11:17:47;;;;;;;15.88;6.95;;;;;;;20.42;100.00;101778.97;5226376;28;20369;-84
2021/06/25 11:20:23;;;;;;;14.05;7.50;;;;;;;20.40;98.43;101777.53;5231841;28;20440;-82
2021/06/25 11:23:12;;;;;;;13.60;7.63;;;;;;;20.27;100.00;101780.22;5232411;28;20029;-84
2021/06/25 11:25:53;;;;;;;14.80;7.38;;;;;;;20.10;100.00;101780.63;5226136;28;20031;-82
2021/06/25 11:28:30;;;;;;;12.23;7.35;;;;;;;20.17;100.00;101786.06;5226640;28;20107;-83
2021/06/25 11:31:02;;;;;;;13.10;8.30;;;;;;;20.41;100.00;101781.94;5226099;28;20543;-81
2021/06/25 11:33:38;;;;;;;14.55;7.63;;;;;;;20.34;100.00;101786.53;5234695;28;20387;-83
2021/06/25 11:36:15;;;;;;;15.68;8.25;;;;;;;20.26;100.00;101781.28;5232999;28;20021;-82
2021/06/25 11:38:54;;;;;;;12.70;7.68;;;;;;;20.69;100.00;101779.03;5236186;28;20032;-83
2021/06/25 11:41:30;;;;;;;12.05;8.15;;;;;;;20.63;100.00;101782.56;5231859;28;20044;-83
2021/06/25 11:44:24;;;;;;;13.60;8.65;;;;;;;20.80;100.00;101785.72;5229259;28;20021;-81
2021/06/25 11:47:08;;;;;;;15.68;8.38;;;;;;;20.56;100.00;101773.56;5236038;28;20028;-84